createdAt,value
2022-08-16T00:00:03.868Z,99163.28
2022-08-16T00:01:06.838Z,99177.28
2022-08-16T00:02:13.066Z,99170.31
2022-08-16T00:03:15.048Z,99188.19
2022-08-16T00:04:17.511Z,99201.53
2022-08-16T00:05:21.111Z,99194.56
2022-08-16T00:06:23.362Z,99158.16
2022-08-16T00:07:24.868Z,99168.34
2022-08-16T00:08:36.955Z,99147.63
2022-08-16T00:09:38.975Z,99180.00
2022-08-16T00:10:43.547Z,99186.75
2022-08-16T00:11:46.509Z,99182.75
2022-08-16T00:12:54.805Z,99136.34
2022-08-16T00:13:56.386Z,99179.72
2022-08-16T00:15:00.429Z,99168.09
2022-08-16T00:17:05.423Z,99188.28
2022-08-16T00:17:26.412Z,99189.97
2022-08-16T00:18:31.598Z,99189.97
2022-08-16T00:19:41.830Z,99182.16
2022-08-16T00:20:46.852Z,99175.91
2022-08-16T00:21:53.392Z,99179.72
2022-08-16T00:22:57.935Z,99177.31
2022-08-16T00:23:59.789Z,99147.19
2022-08-16T00:25:10.957Z,99152.31
2022-08-16T00:26:35.510Z,99181.44
2022-08-16T00:27:34.593Z,99176.97
2022-08-16T00:28:36.300Z,99162.19
2022-08-16T00:29:37.993Z,99180.94
2022-08-16T00:30:40.219Z,99177.19
2022-08-16T00:32:00.660Z,99171.03
2022-08-16T00:33:07.550Z,99175.00
2022-08-16T00:34:09.957Z,99143.09
2022-08-16T00:35:25.798Z,99171.09
2022-08-16T00:36:30.577Z,99151.69
2022-08-16T00:37:58.409Z,99162.91
2022-08-16T00:38:54.200Z,99170.59
2022-08-16T00:39:58.505Z,99165.81
2022-08-16T00:41:01.354Z,99171.16
2022-08-16T00:42:03.526Z,99151.16
2022-08-16T00:43:11.735Z,99167.38
2022-08-16T00:44:15.966Z,99176.75
2022-08-16T00:45:57.790Z,99172.44
2022-08-16T00:47:06.764Z,99172.69
2022-08-16T00:48:30.396Z,99175.34
2022-08-16T00:49:39.455Z,99153.25
2022-08-16T00:50:46.410Z,99162.75
2022-08-16T00:51:55.071Z,99175.78
2022-08-16T00:52:57.721Z,99143.50
2022-08-16T00:54:01.414Z,99147.69
2022-08-16T00:55:03.918Z,99163.78
2022-08-16T00:56:56.432Z,99164.75
2022-08-16T00:57:59.241Z,99174.13
2022-08-16T00:58:57.781Z,99171.91
2022-08-16T01:00:05.086Z,99153.91
2022-08-16T01:01:08.787Z,99164.81
2022-08-16T01:02:31.980Z,99154.44
2022-08-16T01:03:36.186Z,99146.25
2022-08-16T01:04:38.309Z,99167.41
2022-08-16T01:05:42.470Z,99160.97
2022-08-16T01:06:49.242Z,99179.28
2022-08-16T01:08:34.832Z,99170.34
2022-08-16T01:09:26.110Z,99173.97
2022-08-16T01:10:38.078Z,99169.94
2022-08-16T01:11:51.743Z,99173.56
2022-08-16T01:12:57.198Z,99173.84
2022-08-16T01:14:21.817Z,99172.75
2022-08-16T01:15:33.213Z,99170.09
2022-08-16T01:16:35.385Z,99146.19
2022-08-16T01:17:37.454Z,99175.78
2022-08-16T01:18:45.522Z,99176.63
2022-08-16T01:19:57.111Z,99173.03
2022-08-16T01:21:04.476Z,99154.00
2022-08-16T01:22:48.527Z,99180.13
2022-08-16T01:24:51.525Z,99179.13
2022-08-16T01:25:45.055Z,99182.78
2022-08-16T01:27:07.470Z,99174.66
2022-08-16T01:28:19.720Z,99173.28
2022-08-16T01:29:56.876Z,99187.84
2022-08-16T01:30:55.292Z,99181.97
2022-08-16T01:31:56.842Z,99161.41
2022-08-16T01:33:15.274Z,99145.91
2022-08-16T01:34:23.014Z,99189.78
2022-08-16T01:35:38.530Z,99158.66
2022-08-16T01:36:41.093Z,99184.75
2022-08-16T01:37:46.034Z,99187.56
2022-08-16T01:38:57.171Z,99179.75
2022-08-16T01:39:59.182Z,99138.66
2022-08-16T01:41:13.250Z,99186.44
2022-08-16T01:42:21.068Z,99181.28
2022-08-16T01:43:27.109Z,99183.94
2022-08-16T01:44:37.544Z,99182.94
2022-08-16T01:45:41.535Z,99179.19
2022-08-16T01:46:46.747Z,99181.97
2022-08-16T01:47:51.270Z,99179.31
2022-08-16T01:48:57.257Z,99161.84
2022-08-16T01:50:43.556Z,99160.72
2022-08-16T01:51:21.760Z,99166.31
2022-08-16T01:52:27.732Z,99177.22
2022-08-16T01:53:31.928Z,99174.97
2022-08-16T01:54:37.483Z,99173.84
2022-08-16T01:55:40.741Z,99179.16
2022-08-16T01:56:43.148Z,99171.06
2022-08-16T01:57:53.755Z,99167.72
2022-08-16T01:59:00.136Z,99179.31
2022-08-16T02:00:04.731Z,99170.47
2022-08-16T02:01:12.287Z,99156.25
2022-08-16T02:02:26.809Z,99176.38
2022-08-16T02:03:30.233Z,99164.09
2022-08-16T02:04:49.578Z,99177.78
2022-08-16T02:05:55.500Z,99165.91
2022-08-16T02:06:59.299Z,99168.69
2022-08-16T02:08:02.263Z,99172.88
2022-08-16T02:09:06.023Z,99170.50
2022-08-16T02:10:08.395Z,99140.19
2022-08-16T02:11:10.470Z,99153.88
2022-08-16T02:12:39.820Z,99168.69
2022-08-16T02:13:36.687Z,99170.50
2022-08-16T02:14:44.118Z,99163.38
2022-08-16T02:15:46.170Z,99141.59
2022-08-16T02:16:52.921Z,99180.28
2022-08-16T02:17:57.705Z,99170.22
2022-08-16T02:19:00.587Z,99167.13
2022-08-16T02:20:04.649Z,99173.44
2022-08-16T02:21:13.766Z,99160.44
2022-08-16T02:22:34.833Z,99172.59
2022-08-16T02:23:39.365Z,99169.94
2022-08-16T02:24:46.083Z,99168.25
2022-08-16T02:25:51.993Z,99160.84
2022-08-16T02:26:56.263Z,99169.94
2022-08-16T02:27:58.888Z,99127.53
2022-08-16T02:29:01.980Z,99145.34
2022-08-16T02:30:06.708Z,99142.97
2022-08-16T02:31:11.980Z,99157.94
2022-08-16T02:32:50.276Z,99162.69
2022-08-16T02:33:43.775Z,99162.69
2022-08-16T02:34:50.570Z,99141.03
2022-08-16T02:35:58.293Z,99159.34
2022-08-16T02:37:00.061Z,99156.97
2022-08-16T02:38:08.687Z,99133.66
2022-08-16T02:39:14.767Z,99159.03
2022-08-16T02:40:17.433Z,99156.41
2022-08-16T02:41:19.736Z,99143.97
2022-08-16T02:42:21.618Z,99150.38
2022-08-16T02:43:29.878Z,99147.03
2022-08-16T02:44:35.110Z,99137.94
2022-08-16T02:45:37.711Z,99145.94
2022-08-16T02:46:40.891Z,99117.72
2022-08-16T02:48:01.460Z,99139.50
2022-08-16T02:49:16.366Z,99147.47
2022-08-16T02:50:54.952Z,99122.47
2022-08-16T02:51:41.855Z,99136.00
2022-08-16T02:52:43.828Z,99137.00
2022-08-16T02:53:48.500Z,99132.41
2022-08-16T02:54:55.387Z,99136.84
2022-08-16T02:55:57.878Z,99136.00
2022-08-16T02:57:00.690Z,99126.09
2022-08-16T02:58:02.182Z,99120.78
2022-08-16T02:59:03.896Z,99130.44
2022-08-16T03:00:33.725Z,99135.75
2022-08-16T03:01:37.359Z,99084.75
2022-08-16T03:02:41.298Z,99117.31
2022-08-16T03:04:30.149Z,99129.59
2022-08-16T03:05:05.989Z,99133.94
2022-08-16T03:06:38.924Z,99123.84
2022-08-16T03:07:37.124Z,99103.78
2022-08-16T03:08:52.593Z,99127.22
2022-08-16T03:09:54.857Z,99110.47
2022-08-16T03:10:59.336Z,99123.44
2022-08-16T03:12:02.794Z,99130.44
2022-08-16T03:13:12.417Z,99123.31
2022-08-16T03:14:21.162Z,99124.97
2022-08-16T03:15:26.368Z,99099.00
2022-08-16T03:16:33.108Z,99127.63
2022-08-16T03:17:52.976Z,99115.78
2022-08-16T03:18:55.746Z,99112.44
2022-08-16T03:20:00.002Z,99119.13
2022-08-16T03:21:02.102Z,99088.81
2022-08-16T03:22:03.728Z,99117.59
2022-08-16T03:23:06.499Z,99109.06
2022-08-16T03:24:28.265Z,99118.00
2022-08-16T03:25:43.921Z,99097.19
2022-08-16T03:26:46.318Z,99088.66
2022-08-16T03:27:48.132Z,99112.13
2022-08-16T03:28:51.599Z,99108.34
2022-08-16T03:29:54.740Z,99092.56
2022-08-16T03:30:56.757Z,99111.00
2022-08-16T03:32:02.156Z,99090.06
2022-08-16T03:33:04.332Z,99113.66
2022-08-16T03:34:07.032Z,99118.16
2022-08-16T03:35:10.796Z,99126.09
2022-08-16T03:36:30.002Z,99101.22
2022-08-16T03:37:33.653Z,99105.41
2022-08-16T03:38:55.181Z,99066.13
2022-08-16T03:40:02.648Z,99102.63
2022-08-16T03:41:24.274Z,99125.94
2022-08-16T03:42:27.544Z,99108.75
2022-08-16T03:43:51.070Z,99117.31
2022-08-16T03:44:52.050Z,99122.19
2022-08-16T03:46:05.834Z,99127.63
2022-08-16T03:47:09.991Z,99116.59
2022-08-16T03:48:14.904Z,99107.63
2022-08-16T03:49:20.034Z,99116.78
2022-08-16T03:50:25.791Z,99120.88
2022-08-16T03:51:28.665Z,99120.03
2022-08-16T03:52:31.398Z,99110.94
2022-08-16T03:53:38.012Z,99109.84
2022-08-16T03:54:52.961Z,99092.22
2022-08-16T03:55:55.880Z,99118.63
2022-08-16T03:56:59.128Z,99110.09
2022-08-16T03:58:00.736Z,99100.56
2022-08-16T03:59:02.697Z,99105.47
2022-08-16T04:00:20.491Z,99114.00
2022-08-16T04:01:37.279Z,99120.00
2022-08-16T04:02:40.299Z,99122.81
2022-08-16T04:03:41.985Z,99107.81
2022-08-16T04:04:46.767Z,99115.53
2022-08-16T04:05:51.158Z,99106.56
2022-08-16T04:06:55.795Z,99127.41
2022-08-16T04:07:57.417Z,99133.53
2022-08-16T04:08:59.014Z,99115.06
2022-08-16T04:10:00.759Z,99120.81
2022-08-16T04:11:23.586Z,99121.50
2022-08-16T04:13:04.343Z,99113.13
2022-08-16T04:13:59.345Z,99121.81
2022-08-16T04:15:13.598Z,99132.00
2022-08-16T04:16:26.134Z,99129.09
2022-08-16T04:17:29.535Z,99119.03
2022-08-16T04:18:31.501Z,99132.44
2022-08-16T04:19:35.322Z,99104.75
2022-08-16T04:20:38.822Z,99137.84
2022-08-16T04:21:46.145Z,99138.31
2022-08-16T04:22:49.638Z,99144.72
2022-08-16T04:23:51.296Z,99139.66
2022-08-16T04:24:59.395Z,99141.47
2022-08-16T04:26:01.856Z,99126.66
2022-08-16T04:27:04.864Z,99142.72
2022-08-16T04:28:51.942Z,99141.78
2022-08-16T04:29:46.042Z,99149.97
2022-08-16T04:30:48.130Z,99156.66
2022-08-16T04:31:56.726Z,99149.94
2022-08-16T04:33:00.390Z,99152.03
2022-08-16T04:34:03.667Z,99120.41
2022-08-16T04:35:12.470Z,99154.25
2022-08-16T04:36:20.150Z,99167.19
2022-08-16T04:37:22.150Z,99149.03
2022-08-16T04:38:23.951Z,99152.91
2022-08-16T04:39:45.981Z,99142.84
2022-08-16T04:40:50.151Z,99147.59
2022-08-16T04:41:56.715Z,99154.53
2022-08-16T04:43:01.177Z,99159.00
2022-08-16T04:44:03.219Z,99162.34
2022-08-16T04:45:36.484Z,99158.03
2022-08-16T04:47:02.923Z,99158.75
2022-08-16T04:48:00.606Z,99169.09
2022-08-16T04:49:03.464Z,99166.28
2022-08-16T04:50:30.311Z,99165.44
2022-08-16T04:51:35.763Z,99173.53
2022-08-16T04:52:39.056Z,99173.53
2022-08-16T04:53:41.423Z,99175.09
2022-08-16T04:54:43.313Z,99165.44
2022-08-16T04:55:45.064Z,99167.25
2022-08-16T04:56:46.811Z,99172.44
2022-08-16T04:57:53.686Z,99172.44
2022-08-16T04:58:57.519Z,99174.25
2022-08-16T04:59:59.755Z,99175.19
2022-08-16T05:01:21.399Z,99173.53
2022-08-16T05:02:41.606Z,99177.16
2022-08-16T05:03:59.849Z,99178.97
2022-08-16T05:05:03.964Z,99176.59
2022-08-16T05:06:07.130Z,99181.03
2022-08-16T05:07:15.006Z,99176.84
2022-08-16T05:08:28.218Z,99182.28
2022-08-16T05:09:32.026Z,99184.22
2022-08-16T05:10:38.472Z,99183.63
2022-08-16T05:11:40.522Z,99184.09
2022-08-16T05:12:44.809Z,99186.28
2022-08-16T05:13:47.880Z,99187.69
2022-08-16T05:15:02.260Z,99185.31
2022-08-16T05:16:06.148Z,99213.34
2022-08-16T05:17:07.803Z,99188.69
2022-08-16T05:18:15.388Z,99187.69
2022-08-16T05:19:19.142Z,99186.03
2022-08-16T05:20:39.130Z,99188.69
2022-08-16T05:21:43.172Z,99188.41
2022-08-16T05:22:45.295Z,99192.97
2022-08-16T05:23:51.861Z,99192.16
2022-08-16T05:25:00.239Z,99190.47
2022-08-16T05:26:02.381Z,99194.69
2022-08-16T05:27:11.355Z,99194.44
2022-08-16T05:28:13.768Z,99195.28
2022-08-16T05:29:15.502Z,99195.97
2022-08-16T05:30:35.799Z,99203.06
2022-08-16T05:31:47.981Z,99207.13
2022-08-16T05:32:50.027Z,99178.06
2022-08-16T05:33:53.404Z,99208.69
2022-08-16T05:34:56.341Z,99206.75
2022-08-16T05:35:58.012Z,99202.28
2022-08-16T05:36:59.754Z,99199.50
2022-08-16T05:38:02.211Z,99199.25
2022-08-16T05:39:06.660Z,99194.09
2022-08-16T05:40:13.208Z,99202.44
2022-08-16T05:41:15.424Z,99187.09
2022-08-16T05:42:19.730Z,99197.59
2022-08-16T05:43:21.993Z,99217.69
2022-08-16T05:44:25.295Z,99196.34
2022-08-16T05:45:26.983Z,99188.84
2022-08-16T05:46:30.825Z,99195.59
2022-08-16T05:47:33.354Z,99198.78
2022-08-16T05:48:45.217Z,99198.66
2022-08-16T05:49:56.897Z,99203.84
2022-08-16T05:50:59.055Z,99203.00
2022-08-16T05:52:01.236Z,99202.44
2022-08-16T05:53:02.912Z,99204.00
2022-08-16T05:54:04.767Z,99199.69
2022-08-16T05:55:07.590Z,99207.28
2022-08-16T05:56:11.391Z,99206.50
2022-08-16T05:57:21.299Z,99203.28
2022-08-16T05:58:33.160Z,99210.44
2022-08-16T05:59:35.240Z,99215.06
2022-08-16T06:00:38.394Z,99220.38
2022-08-16T06:01:41.314Z,99217.72
2022-08-16T06:02:43.136Z,99237.88
2022-08-16T06:03:44.800Z,99216.78
2022-08-16T06:04:46.529Z,99213.56
2022-08-16T06:05:48.087Z,99218.91
2022-08-16T06:06:56.480Z,99216.94
2022-08-16T06:07:59.227Z,99215.41
2022-08-16T06:09:00.962Z,99214.66
2022-08-16T06:10:02.737Z,99214.81
2022-08-16T06:11:10.298Z,99216.19
2022-08-16T06:12:27.953Z,99216.16
2022-08-16T06:13:32.621Z,99220.00
2022-08-16T06:14:34.675Z,99216.66
2022-08-16T06:15:37.956Z,99215.94
2022-08-16T06:16:43.312Z,99215.19
2022-08-16T06:17:45.649Z,99216.69
2022-08-16T06:18:47.901Z,99216.47
2022-08-16T06:19:49.428Z,99216.44
2022-08-16T06:20:55.726Z,99217.22
2022-08-16T06:21:57.699Z,99215.63
2022-08-16T06:23:03.447Z,99212.78
2022-08-16T06:24:54.632Z,99217.19
2022-08-16T06:25:35.975Z,99218.97
2022-08-16T06:26:45.932Z,99226.41
2022-08-16T06:27:59.363Z,99219.78
2022-08-16T06:29:02.997Z,99217.88
2022-08-16T06:30:08.156Z,99224.34
2022-08-16T06:31:12.469Z,99216.41
2022-08-16T06:32:27.893Z,99224.19
2022-08-16T06:33:30.153Z,99221.09
2022-08-16T06:34:55.297Z,99223.28
2022-08-16T06:35:59.722Z,99220.72
2022-08-16T06:37:01.549Z,99216.44
2022-08-16T06:38:04.598Z,99211.19
2022-08-16T06:39:06.380Z,99208.56
2022-08-16T06:40:12.420Z,99209.84
2022-08-16T06:41:14.766Z,99218.09
2022-08-16T06:42:18.381Z,99205.91
2022-08-16T06:43:21.387Z,99212.75
2022-08-16T06:44:29.344Z,99222.44
2022-08-16T06:45:31.020Z,99208.78
2022-08-16T06:46:35.141Z,99219.53
2022-08-16T06:47:52.450Z,99207.00
2022-08-16T06:48:55.576Z,99215.34
2022-08-16T06:49:59.059Z,99211.03
2022-08-16T06:51:05.930Z,99209.94
2022-08-16T06:52:59.586Z,99209.97
2022-08-16T06:53:33.787Z,99212.47
2022-08-16T06:54:37.413Z,99222.44
2022-08-16T06:55:40.178Z,99212.56
2022-08-16T06:56:42.562Z,99212.84
2022-08-16T06:57:44.239Z,99218.28
2022-08-16T06:58:46.642Z,99220.13
2022-08-16T06:59:52.473Z,99220.00
2022-08-16T07:01:01.787Z,99224.56
2022-08-16T07:02:04.880Z,99228.81
2022-08-16T07:03:27.721Z,99234.47
2022-08-16T07:04:32.323Z,99225.38
2022-08-16T07:05:41.452Z,99234.69
2022-08-16T07:06:44.169Z,99224.00
2022-08-16T07:07:50.719Z,99235.59
2022-08-16T07:08:52.610Z,99230.84
2022-08-16T07:09:55.023Z,99228.63
2022-08-16T07:10:58.708Z,99238.63
2022-08-16T07:12:03.794Z,99226.72
2022-08-16T07:13:11.999Z,99221.34
2022-08-16T07:14:24.121Z,99226.38
2022-08-16T07:15:27.087Z,99227.25
2022-08-16T07:16:30.325Z,99229.91
2022-08-16T07:17:33.492Z,99221.00
2022-08-16T07:18:36.763Z,99210.16
2022-08-16T07:20:29.260Z,99221.63
2022-08-16T07:21:02.520Z,99177.72
2022-08-16T07:22:04.259Z,99220.28
2022-08-16T07:23:13.497Z,99215.03
2022-08-16T07:24:30.270Z,99211.56
2022-08-16T07:25:33.799Z,99212.22
2022-08-16T07:26:41.956Z,99216.38
2022-08-16T07:27:51.748Z,99210.13
2022-08-16T07:28:53.445Z,99216.97
2022-08-16T07:29:55.500Z,99221.56
2022-08-16T07:30:59.920Z,99219.81
2022-08-16T07:32:02.466Z,99213.63
2022-08-16T07:33:07.117Z,99209.44
2022-08-16T07:34:10.047Z,99209.25
2022-08-16T07:35:12.302Z,99219.84
2022-08-16T07:36:22.205Z,99218.16
2022-08-16T07:37:24.208Z,99212.44
2022-08-16T07:38:34.172Z,99181.06
2022-08-16T07:39:43.499Z,99217.19
2022-08-16T07:40:59.520Z,99214.69
2022-08-16T07:42:02.154Z,99231.16
2022-08-16T07:43:08.633Z,99211.59
2022-08-16T07:44:16.762Z,99210.88
2022-08-16T07:45:19.392Z,99205.25
2022-08-16T07:46:37.477Z,99210.94
2022-08-16T07:47:42.075Z,99211.97
2022-08-16T07:48:43.983Z,99222.28
2022-08-16T07:49:53.131Z,99224.13
2022-08-16T07:51:02.410Z,99223.91
2022-08-16T07:52:18.743Z,99221.53
2022-08-16T07:53:22.280Z,99223.63
2022-08-16T07:54:37.987Z,99223.41
2022-08-16T07:55:47.949Z,99221.38
2022-08-16T07:56:50.071Z,99215.28
2022-08-16T07:58:01.056Z,99226.81
2022-08-16T07:59:06.097Z,99235.41
2022-08-16T08:00:08.577Z,99220.56
2022-08-16T08:01:20.521Z,99224.28
2022-08-16T08:02:28.437Z,99227.81
2022-08-16T08:03:36.099Z,99228.88
2022-08-16T08:04:40.736Z,99228.25
2022-08-16T08:05:43.038Z,99227.13
2022-08-16T08:06:45.514Z,99217.41
2022-08-16T08:07:57.654Z,99232.66
2022-08-16T08:09:00.345Z,99195.84
2022-08-16T08:10:04.653Z,99232.31
2022-08-16T08:11:09.145Z,99235.09
2022-08-16T08:12:32.170Z,99218.44
2022-08-16T08:13:42.692Z,99231.09
2022-08-16T08:14:46.281Z,99227.16
2022-08-16T08:15:52.578Z,99232.47
2022-08-16T08:16:54.405Z,99197.47
2022-08-16T08:17:56.613Z,99225.59
2022-08-16T08:19:03.702Z,99226.69
2022-08-16T08:20:07.967Z,99242.50
2022-08-16T08:21:09.832Z,99227.97
2022-08-16T08:22:19.404Z,99225.63
2022-08-16T08:23:25.464Z,99228.59
2022-08-16T08:24:31.486Z,99232.91
2022-08-16T08:25:54.578Z,99227.81
2022-08-16T08:26:59.208Z,99237.06
2022-08-16T08:28:01.306Z,99231.66
2022-08-16T08:29:03.343Z,99230.66
2022-08-16T08:30:49.356Z,99222.16
2022-08-16T08:31:36.305Z,99238.84
2022-08-16T08:33:01.941Z,99230.34
2022-08-16T08:34:00.564Z,99233.91
2022-08-16T08:35:07.583Z,99227.88
2022-08-16T08:36:11.590Z,99230.69
2022-08-16T08:37:23.597Z,99237.38
2022-08-16T08:38:44.206Z,99234.06
2022-08-16T08:39:54.752Z,99234.16
2022-08-16T08:40:57.089Z,99236.88
2022-08-16T08:42:03.677Z,99244.34
2022-08-16T08:43:11.968Z,99235.81
2022-08-16T08:44:29.883Z,99246.50
2022-08-16T08:45:52.593Z,99250.69
2022-08-16T08:47:00.660Z,99246.53
2022-08-16T08:48:03.977Z,99241.91
2022-08-16T08:49:08.724Z,99240.75
2022-08-16T08:50:11.047Z,99246.72
2022-08-16T08:51:14.042Z,99246.41
2022-08-16T08:52:35.088Z,99250.47
2022-08-16T08:53:38.171Z,99256.34
2022-08-16T08:54:40.125Z,99257.94
2022-08-16T08:55:42.597Z,99250.63
2022-08-16T08:56:45.791Z,99253.19
2022-08-16T08:57:47.942Z,99260.47
2022-08-16T08:58:54.935Z,99227.78
2022-08-16T09:00:07.983Z,99255.06
2022-08-16T09:01:31.444Z,99258.19
2022-08-16T09:02:38.626Z,99255.66
2022-08-16T09:03:40.920Z,99249.78
2022-08-16T09:04:44.065Z,99251.97
2022-08-16T09:05:51.852Z,99249.59
2022-08-16T09:06:54.037Z,99249.56
2022-08-16T09:08:01.624Z,99252.72
2022-08-16T09:09:07.242Z,99244.56
2022-08-16T09:10:20.278Z,99247.38
2022-08-16T09:11:23.288Z,99220.28
2022-08-16T09:12:42.522Z,99246.53
2022-08-16T09:13:52.058Z,99263.09
2022-08-16T09:14:54.955Z,99256.53
2022-08-16T09:15:56.749Z,99253.47
2022-08-16T09:17:02.996Z,99252.28
2022-08-16T09:18:26.144Z,99245.72
2022-08-16T09:19:32.302Z,99258.88
2022-08-16T09:20:35.485Z,99252.66
2022-08-16T09:21:57.023Z,99260.31
2022-08-16T09:22:59.530Z,99250.09
2022-08-16T09:24:02.439Z,99255.06
2022-08-16T09:25:12.910Z,99253.47
2022-08-16T09:26:45.632Z,99247.56
2022-08-16T09:27:56.467Z,99259.28
2022-08-16T09:29:14.722Z,99256.81
2022-08-16T09:30:34.436Z,99252.28
2022-08-16T09:31:41.967Z,99256.66
2022-08-16T09:32:47.093Z,99241.91
2022-08-16T09:33:51.834Z,99262.78
2022-08-16T09:34:53.992Z,99272.66
2022-08-16T09:36:01.177Z,99260.78
2022-08-16T09:37:03.123Z,99252.44
2022-08-16T09:38:31.498Z,99257.22
2022-08-16T09:39:41.557Z,99247.19
2022-08-16T09:40:47.050Z,99254.84
2022-08-16T09:41:53.807Z,99255.91
2022-08-16T09:42:59.207Z,99256.47
2022-08-16T09:45:12.235Z,99254.56
2022-08-16T09:45:31.315Z,99253.19
2022-08-16T09:46:44.615Z,99253.19
2022-08-16T09:47:56.554Z,99255.06
2022-08-16T09:48:59.446Z,99231.28
2022-08-16T09:50:11.883Z,99256.84
2022-08-16T09:51:13.947Z,99253.31
2022-08-16T09:52:15.830Z,99251.25
2022-08-16T09:53:22.944Z,99257.78
2022-08-16T09:54:32.742Z,99259.19
2022-08-16T09:55:44.495Z,99256.13
2022-08-16T09:56:52.870Z,99262.47
2022-08-16T09:57:55.184Z,99255.19
2022-08-16T09:59:05.743Z,99252.28
2022-08-16T10:00:44.858Z,99252.91
2022-08-16T10:01:36.416Z,99253.94
2022-08-16T10:02:44.093Z,99247.09
2022-08-16T10:04:02.014Z,99250.09
2022-08-16T10:05:05.543Z,99247.47
2022-08-16T10:06:07.613Z,99246.06
2022-08-16T10:07:15.898Z,99249.53
2022-08-16T10:08:25.939Z,99246.91
2022-08-16T10:09:45.274Z,99254.69
2022-08-16T10:11:09.574Z,99254.56
2022-08-16T10:12:29.870Z,99252.91
2022-08-16T10:13:34.289Z,99245.72
2022-08-16T10:14:36.503Z,99248.47
2022-08-16T10:15:40.911Z,99246.13
2022-08-16T10:16:45.705Z,99232.25
2022-08-16T10:18:00.186Z,99251.97
2022-08-16T10:19:06.567Z,99241.25
2022-08-16T10:20:11.373Z,99254.88
2022-08-16T10:21:20.050Z,99246.63
2022-08-16T10:22:24.353Z,99213.56
2022-08-16T10:23:26.612Z,99242.34
2022-08-16T10:24:30.367Z,99254.50
2022-08-16T10:27:17.502Z,99250.16
2022-08-16T10:27:20.325Z,99248.72
2022-08-16T10:28:28.698Z,99240.84
2022-08-16T10:30:00.228Z,99240.16
2022-08-16T10:30:56.588Z,99236.06
2022-08-16T10:32:00.820Z,99212.72
2022-08-16T10:33:05.480Z,99239.28
2022-08-16T10:34:30.785Z,99253.78
2022-08-16T10:35:33.131Z,99236.50
2022-08-16T10:36:39.103Z,99223.34
2022-08-16T10:37:41.401Z,99240.72
2022-08-16T10:38:43.183Z,99242.31
2022-08-16T10:39:44.801Z,99243.91
2022-08-16T10:40:48.174Z,99243.84
2022-08-16T10:41:49.803Z,99245.44
2022-08-16T10:42:51.742Z,99257.66
2022-08-16T10:43:53.322Z,99241.41
2022-08-16T10:44:55.080Z,99249.19
2022-08-16T10:46:00.715Z,99236.47
2022-08-16T10:47:03.803Z,99241.84
2022-08-16T10:48:28.033Z,99233.91
2022-08-16T10:49:30.932Z,99234.13
2022-08-16T10:50:33.861Z,99237.28
2022-08-16T10:52:01.292Z,99235.47
2022-08-16T10:53:06.511Z,99242.22
2022-08-16T10:54:29.816Z,99241.56
2022-08-16T10:55:40.627Z,99247.28
2022-08-16T10:56:56.147Z,99243.50
2022-08-16T10:58:00.101Z,99240.03
2022-08-16T11:00:39.144Z,99233.47
2022-08-16T11:01:44.012Z,99235.25
2022-08-16T11:02:58.726Z,99227.81
2022-08-16T11:04:02.817Z,99242.41
2022-08-16T11:05:24.512Z,99241.03
2022-08-16T11:06:26.854Z,99244.13
2022-08-16T11:07:52.198Z,99241.47
2022-08-16T11:09:21.035Z,99246.50
2022-08-16T11:10:20.027Z,99237.03
2022-08-16T11:11:22.541Z,99246.91
2022-08-16T11:12:24.383Z,99240.19
2022-08-16T11:15:18.530Z,99233.47
2022-08-16T11:16:26.801Z,99239.91
2022-08-16T11:17:32.703Z,99239.03
2022-08-16T11:19:04.077Z,99238.72
2022-08-16T11:21:28.512Z,99241.44
2022-08-16T11:22:46.975Z,99241.81
2022-08-16T11:23:57.824Z,99241.78
2022-08-16T11:26:06.079Z,99242.03
2022-08-16T11:26:24.117Z,99241.25
2022-08-16T11:27:35.549Z,99215.41
2022-08-16T11:29:59.789Z,99239.88
2022-08-16T11:31:03.270Z,99245.72
2022-08-16T11:32:06.042Z,99238.34
2022-08-16T11:33:11.018Z,99230.59
2022-08-16T11:34:16.528Z,99224.91
2022-08-16T11:37:00.984Z,99226.13
2022-08-16T11:38:05.973Z,99227.22
2022-08-16T11:39:28.912Z,99235.75
2022-08-16T11:40:37.996Z,99231.72
2022-08-16T11:41:40.116Z,99227.72
2022-08-16T11:42:46.456Z,99230.09
2022-08-16T11:43:48.043Z,99230.78
2022-08-16T11:44:52.649Z,99229.88
2022-08-16T11:46:01.470Z,99235.59
2022-08-16T11:47:21.952Z,99242.78
2022-08-16T11:48:28.937Z,99244.69
2022-08-16T11:49:30.825Z,99239.22
2022-08-16T11:50:33.952Z,99232.72
2022-08-16T11:51:35.560Z,99237.03
2022-08-16T11:52:38.267Z,99230.28
2022-08-16T11:53:40.519Z,99223.28
2022-08-16T11:54:42.384Z,99230.75
2022-08-16T11:55:47.927Z,99236.41
2022-08-16T11:56:57.170Z,99210.72
2022-08-16T11:58:00.435Z,99218.94
2022-08-16T11:59:02.061Z,99230.94
2022-08-16T12:00:10.380Z,99227.84
2022-08-16T12:01:55.468Z,99226.72
2022-08-16T12:02:54.165Z,99205.69
2022-08-16T12:03:56.948Z,99221.19
2022-08-16T12:04:59.005Z,99202.22
2022-08-16T12:06:25.550Z,99214.25
2022-08-16T12:07:33.341Z,99226.78
2022-08-16T12:08:35.507Z,99219.00
2022-08-16T12:09:43.096Z,99221.09
2022-08-16T12:10:46.573Z,99222.66
2022-08-16T12:11:53.200Z,99222.66
2022-08-16T12:12:55.596Z,99217.09
2022-08-16T12:14:05.139Z,99220.28
2022-08-16T12:15:07.716Z,99224.59
2022-08-16T12:16:10.521Z,99213.53
2022-08-16T12:17:12.218Z,99222.88
2022-08-16T12:18:20.878Z,99215.81
2022-08-16T12:19:34.075Z,99218.25
2022-08-16T12:20:40.199Z,99225.41
2022-08-16T12:21:58.704Z,99218.22
2022-08-16T12:23:01.128Z,99214.56
2022-08-16T12:24:05.747Z,99223.88
2022-08-16T12:25:12.594Z,99216.94
2022-08-16T12:26:17.371Z,99224.06
2022-08-16T12:27:24.066Z,99216.13
2022-08-16T12:28:52.105Z,99216.38
2022-08-16T12:29:47.485Z,99218.94
2022-08-16T12:30:49.242Z,99216.31
2022-08-16T12:32:01.223Z,99214.78
2022-08-16T12:33:25.451Z,99210.22
2022-08-16T12:34:29.025Z,99212.97
2022-08-16T12:35:33.503Z,99210.25
2022-08-16T12:36:35.383Z,99204.22
2022-08-16T12:37:37.009Z,99211.88
2022-08-16T12:38:48.383Z,99208.59
2022-08-16T12:39:55.613Z,99205.78
2022-08-16T12:40:58.194Z,99209.69
2022-08-16T12:42:02.311Z,99210.78
2022-08-16T12:43:06.263Z,99210.53
2022-08-16T12:44:08.498Z,99221.75
2022-08-16T12:45:15.004Z,99207.16
2022-08-16T12:46:16.652Z,99209.06
2022-08-16T12:47:38.056Z,99214.63
2022-08-16T12:48:58.015Z,99204.75
2022-08-16T12:49:59.941Z,99217.88
2022-08-16T12:51:04.045Z,99211.31
2022-08-16T12:52:05.998Z,99211.34
2022-08-16T12:53:07.844Z,99210.78
2022-08-16T12:54:12.016Z,99206.09
2022-08-16T12:55:14.401Z,99208.03
2022-08-16T12:56:16.368Z,99203.88
2022-08-16T12:57:24.396Z,99205.31
2022-08-16T12:58:48.318Z,99203.75
2022-08-16T12:59:53.851Z,99196.97
2022-08-16T13:00:58.445Z,99210.41
2022-08-16T13:02:02.107Z,99203.06
2022-08-16T13:03:04.781Z,99199.84
2022-08-16T13:04:12.076Z,99199.78
2022-08-16T13:05:22.161Z,99196.88
2022-08-16T13:06:29.948Z,99202.41
2022-08-16T13:07:37.516Z,99190.44
2022-08-16T13:08:45.363Z,99193.41
2022-08-16T13:09:56.597Z,99174.28
2022-08-16T13:10:59.004Z,99191.25
2022-08-16T13:12:15.878Z,99194.13
2022-08-16T13:13:24.897Z,99189.06
2022-08-16T13:14:32.883Z,99181.03
2022-08-16T13:15:36.156Z,99185.66
2022-08-16T13:16:53.467Z,99187.75
2022-08-16T13:17:57.796Z,99194.34
2022-08-16T13:19:01.033Z,99188.25
2022-08-16T13:20:11.300Z,99190.22
2022-08-16T13:21:13.301Z,99188.31
2022-08-16T13:22:19.576Z,99181.97
2022-08-16T13:23:22.347Z,99190.22